Time;durP1;ratioP1;P1;durP2;ratioP2;P2;SDS_P1;SDS_P2;PMS_P1;PMS_P2;Temp;Humidity;BMP_temperature;BMP_pressure;BME280_temperature;BME280_humidity;BME280_pressure;Samples;Min_cycle;Max_cycle;Signal;HPM_P1;HPM_P2
2022/03/12 00:00:43;;;;;;;6.90;4.78;;;0.30;61.10;;;;;;5019115;28;20475;-73
2022/03/12 00:03:09;;;;;;;6.85;5.25;;;0.30;61.00;;;;;;5026793;28;20021;-73
2022/03/12 00:05:36;;;;;;;5.40;4.55;;;0.50;60.50;;;;;;5025383;28;20027;-73
2022/03/12 00:08:04;;;;;;;5.60;4.40;;;0.40;60.60;;;;;;5022548;28;20017;-74
2022/03/12 00:10:34;;;;;;;7.75;5.47;;;0.50;60.20;;;;;;5018117;28;20045;-74
2022/03/12 00:13:00;;;;;;;6.75;5.50;;;0.50;60.40;;;;;;5022152;28;20026;-73
2022/03/12 00:15:26;;;;;;;7.60;5.72;;;0.60;60.00;;;;;;5028335;28;20026;-73
2022/03/12 00:17:52;;;;;;;6.50;4.97;;;0.60;60.00;;;;;;5028985;28;20745;-73
2022/03/12 00:20:18;;;;;;;5.85;4.80;;;0.40;59.80;;;;;;5012544;28;20013;-74
2022/03/12 00:22:47;;;;;;;7.45;4.82;;;0.40;59.90;;;;;;5030013;28;20029;-74
2022/03/12 00:25:18;;;;;;;6.25;5.00;;;0.40;60.00;;;;;;5023380;28;20022;-73
2022/03/12 00:27:45;;;;;;;9.38;4.95;;;0.20;60.10;;;;;;5021641;28;20036;-74
2022/03/12 00:30:17;;;;;;;7.97;5.22;;;0.10;60.10;;;;;;5021107;28;20117;-74
2022/03/12 00:32:44;;;;;;;7.68;5.10;;;0.00;60.60;;;;;;5024745;28;20656;-74
2022/03/12 00:37:38;;;;;;;7.05;4.70;;;-0.10;61.60;;;;;;4973258;28;20551;-73
2022/03/12 00:40:04;;;;;;;6.63;4.85;;;-0.20;62.00;;;;;;4973114;28;20026;-73
2022/03/12 00:42:31;;;;;;;5.53;4.65;;;-0.10;61.40;;;;;;4978501;28;20031;-72
2022/03/12 00:44:57;;;;;;;5.80;4.95;;;0.00;61.40;;;;;;4971744;28;20026;-73
2022/03/12 00:47:22;;;;;;;6.78;4.93;;;-0.20;63.20;;;;;;4977217;28;20027;-73
2022/03/12 00:49:49;;;;;;;7.38;5.07;;;-0.30;61.80;;;;;;4973285;28;20030;-73
2022/03/12 00:52:16;;;;;;;5.70;4.70;;;-0.30;62.50;;;;;;4967338;28;20023;-73
2022/03/12 00:54:42;;;;;;;5.43;4.50;;;-0.40;63.30;;;;;;4983465;28;20015;-73
2022/03/12 00:57:10;;;;;;;5.38;4.70;;;-0.50;63.80;;;;;;4972031;28;20031;-73
2022/03/12 00:59:42;;;;;;;5.88;4.60;;;-0.40;64.10;;;;;;4973453;28;20022;-73
2022/03/12 01:02:16;;;;;;;5.70;4.53;;;-0.50;64.30;;;;;;4972517;28;20038;-73
2022/03/12 01:04:43;;;;;;;4.75;4.25;;;-0.60;64.00;;;;;;4978965;28;20026;-73
2022/03/12 01:07:10;;;;;;;6.05;4.90;;;-0.50;64.50;;;;;;4985173;28;20090;-73
2022/03/12 01:09:36;;;;;;;5.75;4.72;;;-0.50;63.90;;;;;;4976845;28;20399;-73
2022/03/12 01:12:02;;;;;;;6.38;4.28;;;-0.30;63.30;;;;;;4976930;28;20019;-73
2022/03/12 01:14:29;;;;;;;6.45;4.75;;;-0.30;63.30;;;;;;4976854;28;20018;-73
2022/03/12 01:16:58;;;;;;;6.38;4.82;;;-0.30;62.70;;;;;;4973599;28;20047;-73
2022/03/12 01:19:24;;;;;;;8.10;5.07;;;-0.20;63.70;;;;;;4987102;28;20019;-72
2022/03/12 01:21:50;;;;;;;6.15;4.70;;;-0.20;63.00;;;;;;4977691;28;20023;-73
2022/03/12 01:24:15;;;;;;;5.15;4.65;;;-0.20;63.10;;;;;;4989759;28;20026;-72
2022/03/12 01:26:41;;;;;;;6.10;4.88;;;-0.10;62.90;;;;;;4974168;28;20027;-73
2022/03/12 01:29:09;;;;;;;6.97;4.90;;;-0.10;62.70;;;;;;4986835;28;20097;-72
2022/03/12 01:31:36;;;;;;;6.68;4.80;;;-0.10;62.70;;;;;;4984128;28;20027;-73
2022/03/12 01:34:03;;;;;;;6.70;5.18;;;-0.10;62.40;;;;;;4976465;28;20034;-73
2022/03/12 01:36:29;;;;;;;7.90;5.55;;;0.10;63.20;;;;;;4976311;28;20050;-73
2022/03/12 01:38:56;;;;;;;5.97;4.72;;;-0.30;63.60;;;;;;4976459;28;20027;-73
2022/03/12 01:41:24;;;;;;;5.72;5.05;;;-0.30;63.60;;;;;;4976322;28;20062;-72
2022/03/12 01:43:51;;;;;;;6.13;4.90;;;-0.30;63.70;;;;;;4976282;28;20023;-72
2022/03/12 01:46:19;;;;;;;6.10;4.60;;;-0.30;64.70;;;;;;4967814;28;20023;-72
2022/03/12 01:48:50;;;;;;;6.70;5.13;;;-0.40;64.60;;;;;;4955682;28;20050;-72
2022/03/12 01:51:16;;;;;;;7.03;5.55;;;-0.40;64.10;;;;;;4960171;28;20085;-72
2022/03/12 01:53:42;;;;;;;6.28;5.20;;;-0.40;64.80;;;;;;4961812;28;20106;-72
2022/03/12 01:56:07;;;;;;;5.97;4.85;;;-0.50;65.10;;;;;;4956825;28;20186;-72
2022/03/12 01:58:35;;;;;;;6.75;5.10;;;-0.50;64.50;;;;;;4956537;28;20039;-72
2022/03/12 02:01:01;;;;;;;5.47;4.93;;;-0.50;65.00;;;;;;4956665;28;20479;-72
2022/03/12 02:03:28;;;;;;;5.50;4.90;;;-0.50;65.00;;;;;;4956667;28;20027;-72
2022/03/12 02:05:57;;;;;;;5.75;5.10;;;-0.50;65.10;;;;;;4956582;28;20102;-71
2022/03/12 02:08:23;;;;;;;6.43;5.07;;;-0.60;65.40;;;;;;4956565;28;20031;-72
2022/03/12 02:10:50;;;;;;;7.22;5.30;;;-0.60;65.60;;;;;;4956430;28;20470;-72
2022/03/12 02:13:17;;;;;;;7.90;4.78;;;-0.50;65.50;;;;;;4956341;28;20038;-72
2022/03/12 02:15:43;;;;;;;6.20;5.20;;;-0.60;65.50;;;;;;4956644;28;20042;-73
2022/03/12 02:18:11;;;;;;;5.70;4.93;;;-0.50;64.80;;;;;;4956315;28;20027;-72
2022/03/12 02:20:38;;;;;;;6.25;5.05;;;-0.50;64.80;;;;;;4956220;28;20027;-72
2022/03/12 02:23:07;;;;;;;6.07;5.15;;;-0.40;64.10;;;;;;4955062;28;20037;-72
2022/03/12 02:25:33;;;;;;;6.30;4.80;;;-0.40;64.00;;;;;;4956713;28;20031;-72
2022/03/12 02:28:09;;;;;;;6.95;4.93;;;-0.30;63.60;;;;;;4955330;28;20023;-73
2022/03/12 02:30:37;;;;;;;6.65;5.28;;;-0.40;64.10;;;;;;4954841;28;20043;-73
2022/03/12 02:33:04;;;;;;;7.35;5.00;;;-0.40;63.90;;;;;;4955101;28;20094;-73
2022/03/12 02:35:34;;;;;;;6.82;5.10;;;-0.30;63.20;;;;;;4955940;28;20035;-73
2022/03/12 02:38:01;;;;;;;5.63;4.70;;;-0.40;64.00;;;;;;4956068;28;20023;-73
2022/03/12 02:40:27;;;;;;;6.40;5.10;;;-0.40;63.50;;;;;;4955881;28;20026;-73
2022/03/12 02:42:55;;;;;;;7.88;5.47;;;-0.20;62.70;;;;;;4955912;28;20023;-73
2022/03/12 02:45:23;;;;;;;5.28;4.72;;;-0.20;62.90;;;;;;4967430;28;20034;-73
2022/03/12 02:47:49;;;;;;;5.60;4.50;;;-0.20;63.30;;;;;;4975163;28;20480;-73
2022/03/12 02:50:14;;;;;;;7.40;4.63;;;-0.20;62.60;;;;;;4973820;28;20037;-72
2022/03/12 02:52:42;;;;;;;4.75;4.35;;;-0.10;62.10;;;;;;4968750;28;20038;-73
2022/03/12 02:55:20;;;;;;;5.82;4.70;;;-0.10;62.20;;;;;;4955776;28;20175;-73
2022/03/12 02:57:46;;;;;;;6.43;4.68;;;0.00;61.10;;;;;;4954453;28;20055;-71
2022/03/12 03:00:13;;;;;;;7.07;5.25;;;0.00;61.70;;;;;;4954484;28;20027;-72
2022/03/12 03:02:40;;;;;;;6.97;5.30;;;0.00;61.70;;;;;;4955737;28;20389;-71
2022/03/12 03:05:13;;;;;;;6.03;4.85;;;-0.10;62.50;;;;;;4955648;28;20074;-71
2022/03/12 03:07:39;;;;;;;7.07;4.82;;;-0.20;62.90;;;;;;4955661;28;20023;-71
2022/03/12 03:10:05;;;;;;;6.45;4.88;;;-0.10;62.10;;;;;;4954305;28;20106;-71
2022/03/12 03:12:31;;;;;;;7.88;4.97;;;-0.20;62.50;;;;;;4953931;28;20474;-73
2022/03/12 03:14:57;;;;;;;6.35;4.85;;;-0.10;62.10;;;;;;4968558;28;20255;-72
2022/03/12 03:17:25;;;;;;;5.72;4.57;;;-0.10;62.20;;;;;;4955370;28;20501;-72
2022/03/12 03:19:51;;;;;;;6.75;5.28;;;-0.10;62.20;;;;;;4955265;28;20055;-73
2022/03/12 03:22:16;;;;;;;6.05;5.07;;;-0.20;62.60;;;;;;4955175;28;20015;-72
2022/03/12 03:24:42;;;;;;;7.05;5.40;;;-0.20;62.60;;;;;;4955187;28;20031;-72
2022/03/12 03:27:08;;;;;;;6.72;4.80;;;-0.30;63.20;;;;;;4955156;28;20031;-73
2022/03/12 03:29:34;;;;;;;6.95;5.07;;;-0.30;63.10;;;;;;4953858;28;20042;-73
2022/03/12 03:32:02;;;;;;;5.68;5.03;;;-0.30;62.90;;;;;;4953722;28;20027;-73
2022/03/12 03:34:30;;;;;;;4.85;4.35;;;-0.30;63.20;;;;;;4953888;28;20027;-73
2022/03/12 03:36:56;;;;;;;5.28;4.72;;;-0.30;63.40;;;;;;4954900;28;20071;-73
2022/03/12 03:39:22;;;;;;;5.22;4.72;;;-0.30;63.30;;;;;;4954839;28;20075;-73
2022/03/12 03:41:48;;;;;;;6.25;4.72;;;-0.20;62.70;;;;;;4954286;28;20503;-73
2022/03/12 03:44:15;;;;;;;6.07;5.18;;;-0.20;62.40;;;;;;4955703;28;20162;-72
2022/03/12 03:46:41;;;;;;;7.57;5.15;;;-0.20;62.20;;;;;;4962894;28;20106;-73
2022/03/12 03:49:07;;;;;;;6.38;4.90;;;-0.20;62.40;;;;;;4953966;28;20478;-73
2022/03/12 03:51:41;;;;;;;8.18;5.32;;;-0.20;62.50;;;;;;4959679;28;20034;-73
2022/03/12 03:54:08;;;;;;;5.80;4.85;;;-0.20;62.40;;;;;;4956224;28;20066;-73
2022/03/12 03:56:34;;;;;;;7.70;4.78;;;-0.20;62.70;;;;;;4953247;28;20050;-73
2022/03/12 03:59:00;;;;;;;5.82;4.75;;;-0.20;62.40;;;;;;4954540;28;20417;-73
2022/03/12 04:01:25;;;;;;;5.32;4.82;;;-0.20;62.30;;;;;;4954390;28;20070;-73
2022/03/12 04:03:51;;;;;;;7.95;5.00;;;-0.20;62.90;;;;;;4954395;28;20090;-73
2022/03/12 04:06:19;;;;;;;6.80;5.05;;;-0.30;63.10;;;;;;4965712;28;20019;-73
2022/03/12 04:08:45;;;;;;;5.65;5.15;;;-0.30;63.20;;;;;;4971967;28;20034;-73
2022/03/12 04:11:16;;;;;;;6.70;4.93;;;-0.30;63.10;;;;;;4952943;28;20078;-73
2022/03/12 04:13:43;;;;;;;5.70;5.10;;;-0.30;62.80;;;;;;4954303;28;20508;-72
2022/03/12 04:16:09;;;;;;;5.93;5.00;;;-0.40;63.50;;;;;;4954208;28;20110;-73
2022/03/12 04:18:37;;;;;;;5.68;5.03;;;-0.30;63.10;;;;;;4954191;28;20034;-73
2022/03/12 04:21:04;;;;;;;6.32;5.72;;;-0.30;63.00;;;;;;4954126;28;20031;-73
2022/03/12 04:23:29;;;;;;;7.03;5.45;;;-0.40;63.80;;;;;;4954187;28;20476;-73
2022/03/12 04:25:57;;;;;;;5.95;4.97;;;-0.40;63.40;;;;;;4954083;28;20078;-73
2022/03/12 04:28:24;;;;;;;5.32;4.78;;;-0.50;64.20;;;;;;4952834;28;20028;-74
2022/03/12 04:30:50;;;;;;;6.57;5.38;;;-0.60;64.00;;;;;;4953656;28;20035;-73
2022/03/12 04:33:19;;;;;;;6.60;5.28;;;-0.50;64.10;;;;;;4952822;28;20078;-73
2022/03/12 04:35:46;;;;;;;5.90;4.80;;;-0.70;64.60;;;;;;4953851;28;20551;-73
2022/03/12 04:38:13;;;;;;;5.75;4.88;;;-0.70;64.80;;;;;;4954262;28;20035;-72
2022/03/12 04:40:40;;;;;;;6.72;4.80;;;-0.70;65.00;;;;;;4952324;28;20452;-72
2022/03/12 04:43:09;;;;;;;5.93;4.80;;;-0.80;65.00;;;;;;4953920;28;20023;-73
2022/03/12 04:45:36;;;;;;;5.63;5.00;;;-0.80;65.60;;;;;;4965317;28;20026;-72
2022/03/12 04:48:01;;;;;;;6.00;4.55;;;-0.90;65.90;;;;;;4952631;28;20034;-72
2022/03/12 04:50:27;;;;;;;5.97;5.38;;;-1.00;66.50;;;;;;4953560;28;20027;-73
2022/03/12 04:52:57;;;;;;;5.82;4.80;;;-1.00;66.90;;;;;;4961366;28;20039;-72
2022/03/12 04:55:25;;;;;;;8.10;5.45;;;-1.10;67.90;;;;;;4952870;28;20489;-72
2022/03/12 04:57:52;;;;;;;7.43;5.25;;;-1.10;68.20;;;;;;4953498;28;20552;-72
2022/03/12 05:00:27;;;;;;;6.38;5.00;;;-1.30;68.60;;;;;;4953425;28;20027;-72
2022/03/12 05:03:08;;;;;;;6.57;5.13;;;-1.50;69.00;;;;;;4953654;28;20711;-72
2022/03/12 05:05:34;;;;;;;6.53;4.95;;;-1.40;67.70;;;;;;4953480;28;20019;-72
2022/03/12 05:08:00;;;;;;;6.70;5.15;;;-1.50;69.50;;;;;;4953644;28;20031;-73
2022/03/12 05:10:27;;;;;;;6.05;5.15;;;-1.50;69.70;;;;;;4953640;28;20042;-72
2022/03/12 05:12:57;;;;;;;6.78;5.18;;;-1.50;70.50;;;;;;4954088;28;20576;-73
2022/03/12 05:15:22;;;;;;;6.43;5.78;;;-1.50;70.50;;;;;;4952219;28;20094;-73
2022/03/12 05:17:49;;;;;;;6.93;5.40;;;-1.50;70.90;;;;;;4953514;28;20027;-73
2022/03/12 05:20:25;;;;;;;5.63;5.03;;;-1.60;70.50;;;;;;4952197;28;20446;-73
2022/03/12 05:22:50;;;;;;;;;;;-1.50;68.40;;;;;;4953745;28;20384;-72
2022/03/12 05:25:18;;;;;;;8.25;7.45;;;-1.40;68.80;;;;;;4953468;28;19906;-72
2022/03/12 05:27:46;;;;;;;7.20;6.50;;;-1.60;70.10;;;;;;4953336;28;20055;-73
2022/03/12 05:30:12;;;;;;;7.75;5.68;;;-1.50;70.40;;;;;;4953328;28;20482;-73
2022/03/12 05:32:37;;;;;;;6.25;5.40;;;-1.50;71.10;;;;;;4953187;28;20019;-73
2022/03/12 05:35:04;;;;;;;7.10;5.28;;;-1.50;70.90;;;;;;4953317;28;20046;-73
2022/03/12 05:37:29;;;;;;;8.25;5.53;;;-1.60;71.10;;;;;;4951429;28;20407;-73
2022/03/12 05:39:55;;;;;;;10.93;9.43;;;-1.70;72.00;;;;;;4951993;28;20031;-73
2022/03/12 05:42:22;;;;;;;10.10;8.38;;;-1.70;71.50;;;;;;4953228;28;20031;-73
2022/03/12 05:44:48;;;;;;;7.18;6.47;;;-1.40;69.10;;;;;;4960213;28;20023;-72
2022/03/12 05:47:13;;;;;;;6.65;6.00;;;-1.30;68.70;;;;;;4957715;28;20035;-72
2022/03/12 05:49:39;;;;;;;6.25;5.43;;;-1.20;67.40;;;;;;4953147;28;20106;-71
2022/03/12 05:52:07;;;;;;;6.30;5.70;;;-1.20;67.70;;;;;;4960642;28;20027;-72
2022/03/12 05:54:33;;;;;;;5.78;5.10;;;-1.20;67.60;;;;;;4953237;28;20027;-72
2022/03/12 05:57:00;;;;;;;6.38;5.70;;;-1.10;69.00;;;;;;4953013;28;20083;-73
2022/03/12 05:59:25;;;;;;;12.10;8.95;;;-1.20;70.20;;;;;;4953078;28;20023;-73
2022/03/12 06:01:51;;;;;;;9.45;7.78;;;-1.30;70.40;;;;;;4966691;28;20126;-72
2022/03/12 06:04:25;;;;;;;7.32;6.45;;;-1.20;70.80;;;;;;4971123;28;20511;-73
2022/03/12 06:06:51;;;;;;;7.57;6.55;;;-1.20;70.80;;;;;;4972462;28;20023;-73
2022/03/12 06:09:17;;;;;;;8.85;7.22;;;-1.20;72.60;;;;;;4976016;28;20101;-73
2022/03/12 06:11:43;;;;;;;6.75;5.63;;;-1.10;71.50;;;;;;4974534;28;20096;-72
2022/03/12 06:14:10;;;;;;;6.28;5.35;;;-1.00;71.90;;;;;;4975895;28;20027;-73
2022/03/12 06:16:36;;;;;;;7.20;5.30;;;-1.00;72.80;;;;;;4976192;28;20046;-72
2022/03/12 06:19:02;;;;;;;7.22;5.53;;;-0.90;72.20;;;;;;4975620;28;20485;-72
2022/03/12 06:21:27;;;;;;;6.75;5.63;;;-0.80;72.20;;;;;;4975145;28;20022;-73
2022/03/12 06:23:54;;;;;;;7.30;5.28;;;-0.70;70.70;;;;;;4975376;28;20033;-72
2022/03/12 06:26:24;;;;;;;7.03;5.57;;;-0.60;69.20;;;;;;4975712;28;20478;-72
2022/03/12 06:28:50;;;;;;;6.15;5.18;;;-0.50;68.50;;;;;;4975698;28;20042;-72
2022/03/12 06:31:16;;;;;;;6.15;5.03;;;-0.30;68.30;;;;;;4962502;28;20035;-73
2022/03/12 06:33:42;;;;;;;5.50;4.65;;;-0.30;67.10;;;;;;4965531;28;20038;-72
2022/03/12 06:36:09;;;;;;;6.72;5.53;;;-0.30;67.80;;;;;;4959426;28;20041;-72
2022/03/12 06:38:37;;;;;;;6.10;5.38;;;-0.30;67.80;;;;;;5009446;22;20037;-76
2022/03/12 06:41:03;;;;;;;7.22;5.80;;;-0.20;67.60;;;;;;5013980;28;20028;-75
2022/03/12 06:43:31;;;;;;;7.00;6.15;;;-0.10;67.50;;;;;;5005242;28;20023;-75
2022/03/12 06:45:59;;;;;;;6.22;5.38;;;0.00;67.20;;;;;;5014516;28;20030;-75
2022/03/12 06:48:25;;;;;;;7.18;5.50;;;0.00;66.80;;;;;;5002901;28;20027;-75
2022/03/12 06:50:51;;;;;;;6.18;5.28;;;0.10;66.90;;;;;;5007620;28;20113;-75
2022/03/12 06:53:17;;;;;;;6.07;5.10;;;0.10;67.40;;;;;;5006652;28;20088;-74
2022/03/12 06:55:43;;;;;;;6.13;4.85;;;0.10;67.30;;;;;;4999717;28;20029;-74
2022/03/12 06:58:09;;;;;;;8.00;7.07;;;0.10;67.50;;;;;;5002455;28;20034;-74
2022/03/12 07:00:35;;;;;;;7.95;6.20;;;0.30;64.80;;;;;;5007604;28;20054;-74
2022/03/12 07:03:01;;;;;;;6.10;5.18;;;0.30;64.50;;;;;;5006241;28;20094;-74
2022/03/12 07:05:27;;;;;;;5.97;4.97;;;0.40;64.40;;;;;;5000940;28;20109;-74
2022/03/12 07:07:53;;;;;;;6.25;5.07;;;0.50;64.00;;;;;;5002020;28;20523;-74
2022/03/12 07:10:19;;;;;;;5.60;4.60;;;0.50;63.90;;;;;;5006018;28;20026;-75
2022/03/12 07:12:46;;;;;;;6.45;4.97;;;0.40;65.20;;;;;;5006113;28;20030;-74
2022/03/12 07:15:14;;;;;;;6.72;4.75;;;0.50;64.70;;;;;;4999338;28;20029;-73
2022/03/12 07:17:42;;;;;;;6.07;5.25;;;0.50;65.10;;;;;;5000033;28;20101;-74
2022/03/12 07:20:10;;;;;;;6.90;4.93;;;0.70;64.40;;;;;;5007048;28;20169;-73
2022/03/12 07:22:35;;;;;;;5.93;4.88;;;0.80;63.20;;;;;;4992949;28;20018;-74
2022/03/12 07:25:02;;;;;;;4.97;4.30;;;0.90;61.90;;;;;;5006918;28;20022;-74
2022/03/12 07:27:27;;;;;;;7.43;5.18;;;0.90;61.30;;;;;;5011731;28;20037;-74
2022/03/12 07:29:53;;;;;;;5.90;4.70;;;0.90;61.80;;;;;;5007647;28;20034;-74
2022/03/12 07:32:20;;;;;;;4.70;4.20;;;1.00;62.00;;;;;;5006489;28;20032;-74
2022/03/12 07:34:47;;;;;;;7.78;4.93;;;1.00;61.60;;;;;;5000219;28;20030;-74
2022/03/12 07:37:12;;;;;;;5.18;4.68;;;1.10;61.90;;;;;;5000773;28;20113;-74
2022/03/12 07:39:39;;;;;;;6.90;5.18;;;1.20;62.20;;;;;;5006664;28;20113;-74
2022/03/12 07:42:05;;;;;;;5.97;4.82;;;1.30;63.00;;;;;;5006511;28;20037;-74
2022/03/12 07:44:31;;;;;;;5.80;4.25;;;1.20;63.40;;;;;;5006323;28;20071;-73
2022/03/12 07:46:58;;;;;;;5.40;4.47;;;1.20;61.10;;;;;;5020234;28;20026;-74
2022/03/12 07:49:25;;;;;;;5.78;4.60;;;1.40;61.40;;;;;;5000372;28;20022;-73
2022/03/12 07:51:51;;;;;;;5.05;4.18;;;1.50;61.80;;;;;;5000202;28;20046;-73
2022/03/12 07:54:17;;;;;;;5.95;4.75;;;1.70;60.90;;;;;;5006293;28;20081;-75
2022/03/12 07:56:43;;;;;;;4.82;4.35;;;1.60;60.10;;;;;;5006680;28;20033;-74
2022/03/12 07:59:10;;;;;;;5.20;4.60;;;1.80;60.10;;;;;;5000000;28;20030;-74
2022/03/12 08:01:37;;;;;;;6.15;4.40;;;1.80;60.00;;;;;;4999719;28;20027;-75
2022/03/12 08:04:03;;;;;;;6.70;4.53;;;1.90;60.30;;;;;;5006078;28;20021;-73
2022/03/12 08:06:29;;;;;;;5.13;4.63;;;2.00;60.80;;;;;;5006520;28;20502;-74
2022/03/12 08:08:56;;;;;;;6.43;4.63;;;2.00;60.10;;;;;;5000326;28;20104;-74
2022/03/12 08:11:25;;;;;;;7.97;4.60;;;2.10;59.90;;;;;;4999438;28;20472;-74
2022/03/12 08:13:51;;;;;;;5.50;4.28;;;2.10;59.60;;;;;;5004021;28;20057;-74
2022/03/12 08:16:16;;;;;;;6.28;4.85;;;2.30;59.80;;;;;;5004947;28;20037;-74
2022/03/12 08:18:43;;;;;;;5.55;4.70;;;2.40;59.50;;;;;;4999076;28;20101;-74
2022/03/12 08:21:11;;;;;;;6.95;4.82;;;2.40;59.30;;;;;;5008149;28;20045;-75
2022/03/12 08:23:37;;;;;;;6.13;4.80;;;2.50;59.20;;;;;;5004851;28;20447;-75
2022/03/12 08:26:03;;;;;;;5.93;4.55;;;2.60;59.70;;;;;;5006056;28;20026;-74
2022/03/12 08:28:29;;;;;;;6.43;4.40;;;2.60;59.10;;;;;;4999592;28;20056;-74
2022/03/12 08:30:54;;;;;;;5.63;4.85;;;2.70;58.90;;;;;;4999199;28;20097;-74
2022/03/12 08:33:20;;;;;;;6.57;4.88;;;2.90;59.60;;;;;;5004586;28;20034;-74
2022/03/12 08:35:47;;;;;;;5.28;4.68;;;2.90;59.50;;;;;;5004743;28;20562;-74
2022/03/12 08:38:12;;;;;;;5.35;4.85;;;2.90;58.90;;;;;;5000249;28;20025;-75
2022/03/12 08:40:38;;;;;;;6.30;4.60;;;3.00;58.40;;;;;;5010250;28;20080;-74
2022/03/12 08:43:04;;;;;;;6.65;4.78;;;3.10;59.30;;;;;;5000323;28;20030;-74
2022/03/12 08:45:30;;;;;;;4.97;4.28;;;3.00;59.00;;;;;;5025242;28;20017;-74
2022/03/12 08:47:56;;;;;;;5.50;4.75;;;3.20;58.60;;;;;;5024435;28;20048;-74
2022/03/12 08:50:23;;;;;;;5.88;4.57;;;3.40;57.80;;;;;;4997539;28;20444;-74
2022/03/12 08:52:49;;;;;;;4.80;4.30;;;3.50;58.00;;;;;;5003392;28;20041;-76
2022/03/12 08:55:14;;;;;;;5.72;4.72;;;3.50;58.30;;;;;;5005741;28;20018;-77
2022/03/12 08:57:40;;;;;;;7.85;4.32;;;3.50;58.00;;;;;;5003005;28;20030;-75
2022/03/12 09:00:09;;;;;;;6.28;4.90;;;3.50;57.40;;;;;;5005449;28;20026;-75
2022/03/12 09:02:35;;;;;;;7.05;4.78;;;3.60;58.00;;;;;;4992353;28;20033;-75
2022/03/12 09:05:04;;;;;;;4.82;4.32;;;3.70;58.00;;;;;;5005755;28;20392;-73
2022/03/12 09:07:30;;;;;;;5.38;4.53;;;3.70;57.70;;;;;;5003408;28;20153;-74
2022/03/12 09:09:56;;;;;;;5.35;4.38;;;3.80;57.90;;;;;;5005387;28;20101;-74
2022/03/12 09:12:21;;;;;;;6.00;4.35;;;3.90;58.20;;;;;;4999590;28;20026;-75
2022/03/12 09:14:47;;;;;;;6.30;4.75;;;3.90;57.50;;;;;;4998778;28;20483;-74
2022/03/12 09:17:13;;;;;;;5.72;4.40;;;4.10;58.30;;;;;;5003419;28;20026;-74
2022/03/12 09:19:38;;;;;;;4.60;4.13;;;4.10;57.80;;;;;;4993860;28;20026;-73
2022/03/12 09:22:04;;;;;;;5.28;4.63;;;4.20;56.80;;;;;;5011786;28;20105;-73
2022/03/12 09:24:30;;;;;;;8.70;5.35;;;4.30;57.90;;;;;;5011629;28;20026;-73
2022/03/12 09:26:56;;;;;;;6.55;4.72;;;4.20;56.90;;;;;;5011754;28;20084;-75
2022/03/12 09:29:22;;;;;;;8.23;4.85;;;4.20;57.70;;;;;;5011516;28;20025;-74
2022/03/12 09:31:48;;;;;;;5.80;4.78;;;4.30;57.70;;;;;;5010359;28;20041;-74
2022/03/12 09:34:14;;;;;;;6.03;4.90;;;4.30;57.40;;;;;;5010204;28;20026;-74
2022/03/12 09:36:40;;;;;;;7.90;5.15;;;4.40;57.40;;;;;;5009056;28;20398;-76
2022/03/12 09:39:07;;;;;;;5.82;4.57;;;4.40;57.60;;;;;;5002336;28;20088;-74
2022/03/12 09:41:34;;;;;;;5.13;4.45;;;4.50;57.60;;;;;;5003822;28;20029;-75
2022/03/12 09:44:00;;;;;;;5.45;4.70;;;4.50;56.30;;;;;;5013936;28;20032;-75
2022/03/12 09:46:26;;;;;;;7.07;5.13;;;4.60;56.60;;;;;;5006741;28;20019;-74
2022/03/12 09:48:51;;;;;;;6.30;4.53;;;4.70;57.40;;;;;;4993959;28;20038;-74
2022/03/12 09:51:17;;;;;;;8.15;4.57;;;4.70;56.80;;;;;;4999475;28;20026;-75
2022/03/12 09:53:42;;;;;;;6.00;5.13;;;4.70;56.30;;;;;;5000005;28;20476;-75
2022/03/12 09:56:08;;;;;;;5.15;4.38;;;4.90;55.90;;;;;;5003881;28;20030;-76
2022/03/12 09:58:34;;;;;;;6.85;5.20;;;4.90;55.70;;;;;;5014956;28;20041;-75
2022/03/12 10:00:59;;;;;;;6.25;4.65;;;5.00;56.10;;;;;;5014932;28;20030;-75
2022/03/12 10:03:25;;;;;;;6.68;4.78;;;5.00;56.10;;;;;;5015450;28;20160;-74
2022/03/12 10:05:51;;;;;;;6.53;4.97;;;5.00;55.90;;;;;;5015136;28;20442;-75
2022/03/12 10:08:17;;;;;;;7.43;4.90;;;5.20;56.70;;;;;;5014821;28;20496;-75
2022/03/12 10:10:42;;;;;;;5.45;4.60;;;5.30;56.30;;;;;;5013171;28;20101;-76
2022/03/12 10:13:08;;;;;;;7.78;4.82;;;5.30;56.40;;;;;;5013336;28;20369;-74
2022/03/12 10:15:33;;;;;;;6.55;4.65;;;5.50;56.50;;;;;;4994014;28;20029;-75
2022/03/12 10:18:00;;;;;;;5.18;4.35;;;5.70;56.40;;;;;;5009736;28;20084;-75
2022/03/12 10:20:26;;;;;;;7.07;5.30;;;5.60;54.90;;;;;;5006296;28;20530;-75
2022/03/12 10:22:54;;;;;;;7.22;5.28;;;5.60;55.50;;;;;;5008480;28;20022;-75
2022/03/12 10:25:19;;;;;;;6.63;5.13;;;5.70;55.50;;;;;;5003837;28;20033;-75
2022/03/12 10:27:45;;;;;;;6.43;5.30;;;5.60;55.70;;;;;;5011535;28;20029;-75
2022/03/12 10:30:12;;;;;;;6.35;5.00;;;5.70;55.20;;;;;;4995040;28;20484;-75
2022/03/12 10:32:45;;;;;;;8.50;4.97;;;5.90;56.00;;;;;;4996907;28;20431;-75
2022/03/12 10:35:18;;;;;;;8.52;5.35;;;5.90;55.00;;;;;;5004961;28;20101;-75
2022/03/12 10:37:44;;;;;;;9.98;7.68;;;5.80;54.70;;;;;;5007829;28;20034;-75
2022/03/12 10:40:20;;;;;;;8.70;6.13;;;6.00;55.10;;;;;;4994967;28;20491;-74
2022/03/12 10:42:56;;;;;;;8.35;5.35;;;6.10;54.90;;;;;;5008139;28;20022;-74
2022/03/12 10:45:25;;;;;;;7.93;5.22;;;6.20;56.30;;;;;;5007996;28;20026;-76
2022/03/12 10:47:56;;;;;;;8.50;6.05;;;6.50;56.00;;;;;;5000556;28;20033;-75
2022/03/12 10:50:25;;;;;;;8.07;5.57;;;6.70;55.60;;;;;;5001128;28;20026;-75
2022/03/12 10:52:53;;;;;;;6.65;5.28;;;6.60;55.10;;;;;;5004904;28;20480;-75
2022/03/12 10:55:30;;;;;;;6.97;5.40;;;6.50;54.60;;;;;;4996554;28;20072;-75
2022/03/12 10:58:03;;;;;;;7.25;5.43;;;6.60;55.00;;;;;;5004392;28;20626;-75
2022/03/12 11:00:41;;;;;;;7.15;5.93;;;6.70;55.30;;;;;;5007841;28;20046;-75
2022/03/12 11:03:13;;;;;;;8.05;5.30;;;6.70;55.00;;;;;;5006869;28;20026;-75
2022/03/12 11:05:41;;;;;;;8.20;5.15;;;7.00;55.90;;;;;;4999771;28;20073;-76
2022/03/12 11:08:18;;;;;;;6.05;5.40;;;6.90;55.10;;;;;;5000769;28;20053;-75
2022/03/12 11:11:01;;;;;;;6.47;5.70;;;6.80;54.50;;;;;;5005880;28;20022;-75
2022/03/12 11:13:44;;;;;;;8.80;5.70;;;6.70;54.10;;;;;;5007476;28;20053;-75
2022/03/12 11:16:32;;;;;;;6.70;5.20;;;6.80;55.10;;;;;;5006643;28;20072;-74
2022/03/12 11:19:10;;;;;;;7.25;5.20;;;7.10;55.00;;;;;;5003052;28;20021;-74
2022/03/12 11:21:41;;;;;;;7.63;5.85;;;7.10;54.80;;;;;;5000508;28;20021;-74
2022/03/12 11:24:22;;;;;;;8.30;5.40;;;7.20;54.60;;;;;;5002289;28;20046;-75
2022/03/12 11:26:53;;;;;;;8.25;5.65;;;7.20;54.50;;;;;;5005524;28;20033;-74
2022/03/12 11:29:22;;;;;;;8.05;6.28;;;7.30;55.30;;;;;;5007058;28;20472;-75
2022/03/12 11:31:59;;;;;;;6.43;5.00;;;7.50;55.60;;;;;;5002041;28;20034;-75
2022/03/12 11:34:40;;;;;;;8.85;6.18;;;7.80;56.50;;;;;;5000569;28;20061;-76
2022/03/12 11:37:20;;;;;;;6.30;5.18;;;8.00;55.40;;;;;;5001582;28;20395;-75
2022/03/12 11:39:53;;;;;;;9.35;5.72;;;7.90;55.20;;;;;;4992716;28;20057;-75
2022/03/12 11:42:24;;;;;;;6.93;5.45;;;7.80;54.10;;;;;;4994068;28;20049;-76
2022/03/12 11:44:55;;;;;;;9.02;5.65;;;7.80;54.90;;;;;;5013477;28;20076;-75
2022/03/12 11:47:26;;;;;;;8.85;5.63;;;8.10;55.00;;;;;;5009799;28;20435;-75
2022/03/12 11:49:55;;;;;;;7.72;5.60;;;8.10;54.50;;;;;;5002989;28;20025;-76
2022/03/12 11:52:21;;;;;;;7.35;6.03;;;8.10;54.10;;;;;;5013403;28;20030;-76
2022/03/12 11:54:48;;;;;;;8.30;5.93;;;8.30;55.50;;;;;;5003016;28;20401;-76
2022/03/12 11:57:24;;;;;;;7.32;5.57;;;8.50;54.80;;;;;;5005485;28;20030;-76
2022/03/12 11:59:50;;;;;;;;;;;8.30;54.40;;;;;;5006789;28;20054;-76
2022/03/12 12:02:34;;;;;;;7.20;5.97;;;8.70;54.60;;;;;;4996631;28;19906;-76
2022/03/12 12:05:06;;;;;;;6.72;5.32;;;9.40;55.10;;;;;;5008767;28;20057;-76
2022/03/12 12:07:36;;;;;;;9.73;6.00;;;10.10;53.60;;;;;;5002878;28;20040;-77
2022/03/12 12:10:05;;;;;;;8.55;5.80;;;10.60;53.20;;;;;;4997203;28;20030;-75
2022/03/12 12:12:34;;;;;;;8.23;5.53;;;11.00;53.60;;;;;;5004891;28;20097;-77
2022/03/12 12:15:04;;;;;;;7.18;5.22;;;11.60;52.70;;;;;;5000501;28;20021;-77
2022/03/12 12:17:31;;;;;;;10.60;6.38;;;11.90;52.00;;;;;;5002018;28;20639;-77
2022/03/12 12:19:57;;;;;;;17.27;8.38;;;12.60;53.10;;;;;;5010564;28;20028;-77
2022/03/12 12:22:22;;;;;;;12.05;7.15;;;12.50;52.70;;;;;;5001554;28;20026;-78
2022/03/12 12:24:52;;;;;;;7.22;5.50;;;12.40;53.60;;;;;;5007198;28;20069;-77
2022/03/12 12:27:23;;;;;;;8.48;5.80;;;12.90;53.20;;;;;;4997160;28;20037;-76
2022/03/12 12:29:56;;;;;;;9.00;5.70;;;13.10;52.60;;;;;;5005546;28;20092;-77
2022/03/12 12:32:29;;;;;;;7.05;5.53;;;13.50;50.50;;;;;;5003988;28;20030;-77
2022/03/12 12:35:04;;;;;;;7.32;5.43;;;14.40;51.40;;;;;;4998381;28;20503;-76
2022/03/12 12:37:39;;;;;;;39.53;16.85;;;14.40;50.70;;;;;;5013416;28;20053;-76
2022/03/12 12:40:21;;;;;;;8.35;6.35;;;13.90;52.60;;;;;;5012428;28;20029;-77
2022/03/12 12:42:51;;;;;;;7.78;5.70;;;14.70;51.10;;;;;;4999571;28;20025;-77
2022/03/12 12:45:22;;;;;;;7.43;5.57;;;14.40;51.40;;;;;;5013168;28;20061;-77
2022/03/12 12:48:18;;;;;;;6.57;5.88;;;15.70;48.60;;;;;;4998773;28;20109;-76
2022/03/12 12:51:07;;;;;;;6.85;5.00;;;14.70;49.10;;;;;;5009046;28;20029;-77
2022/03/12 12:53:36;;;;;;;8.57;5.70;;;14.50;49.50;;;;;;4991866;28;20073;-73
2022/03/12 12:56:18;;;;;;;13.65;6.97;;;14.90;49.40;;;;;;4998642;28;20380;-78
2022/03/12 12:58:53;;;;;;;7.78;5.80;;;15.30;50.30;;;;;;4999865;28;20025;-77